Time;durP1;ratioP1;P1;durP2;ratioP2;P2;SDS_P1;SDS_P2;PMS_P1;PMS_P2;Temp;Humidity;BMP_temperature;BMP_pressure;BME280_temperature;BME280_humidity;BME280_pressure;Samples;Min_cycle;Max_cycle;Signal;HPM_P1;HPM_P2
2022/05/13 00:00:53;;;;;;;9.73;7.50;;;;;;;15.15;100.00;97654.06;5008588;28;20071;-61
2022/05/13 00:03:19;;;;;;;10.10;7.28;;;;;;;15.14;100.00;97668.78;5001816;28;20429;-61
2022/05/13 00:05:46;;;;;;;11.90;8.25;;;;;;;15.09;100.00;97664.16;5012854;28;20041;-61
2022/05/13 00:08:12;;;;;;;14.07;8.23;;;;;;;14.87;100.00;97659.81;5009800;28;20046;-62
2022/05/13 00:10:39;;;;;;;10.57;6.90;;;;;;;14.96;100.00;97662.78;4989875;28;20043;-62
2022/05/13 00:13:05;;;;;;;10.35;7.50;;;;;;;15.02;100.00;97661.72;4998096;28;20410;-63
2022/05/13 00:15:34;;;;;;;11.77;8.27;;;;;;;15.08;100.00;97659.78;5008729;28;20072;-61
2022/05/13 00:18:00;;;;;;;10.82;8.30;;;;;;;15.12;100.00;97655.44;5009699;28;20042;-62
2022/05/13 00:20:27;;;;;;;10.43;7.45;;;;;;;15.15;100.00;97665.75;4996047;28;20704;-62
2022/05/13 00:22:56;;;;;;;10.57;7.63;;;;;;;15.10;100.00;97667.72;5025410;28;20037;-61
2022/05/13 00:25:28;;;;;;;13.25;8.70;;;;;;;15.00;100.00;97660.34;5010272;28;20049;-62
2022/05/13 00:27:59;;;;;;;12.13;8.75;;;;;;;14.98;100.00;97667.97;4994452;28;20035;-62
2022/05/13 00:30:29;;;;;;;11.88;7.75;;;;;;;14.81;100.00;97660.88;5006046;28;20052;-62
2022/05/13 00:32:55;;;;;;;9.43;7.68;;;;;;;14.78;100.00;97647.81;4988850;28;20061;-61
2022/05/13 00:35:23;;;;;;;12.23;7.93;;;;;;;14.80;100.00;97659.25;4989391;28;20043;-62
2022/05/13 00:37:49;;;;;;;13.50;9.15;;;;;;;14.87;100.00;97653.53;5009731;28;20702;-61
2022/05/13 00:40:20;;;;;;;10.85;8.13;;;;;;;14.85;100.00;97661.16;4991878;28;20535;-63
2022/05/13 00:42:48;;;;;;;16.33;8.52;;;;;;;14.90;100.00;97651.09;5002583;28;20054;-64
2022/05/13 00:45:16;;;;;;;11.25;7.93;;;;;;;14.85;100.00;97651.06;5008652;28;20494;-61
2022/05/13 00:47:44;;;;;;;11.82;8.20;;;;;;;14.87;100.00;97651.63;5007736;28;20072;-62
2022/05/13 00:50:14;;;;;;;10.65;8.43;;;;;;;14.87;100.00;97651.63;4993108;28;20721;-63
2022/05/13 00:52:45;;;;;;;12.23;8.43;;;;;;;14.78;100.00;97645.09;4988638;28;20043;-62
2022/05/13 00:55:28;;;;;;;13.38;8.18;;;;;;;14.79;100.00;97649.44;5003811;28;20041;-62
2022/05/13 00:57:56;;;;;;;10.90;8.32;;;;;;;14.79;100.00;97654.91;5008095;28;20050;-64
2022/05/13 01:00:23;;;;;;;15.15;9.48;;;;;;;14.79;100.00;97657.63;5006620;28;20045;-62
2022/05/13 01:02:49;;;;;;;10.30;7.68;;;;;;;14.80;100.00;97659.25;4988805;28;20053;-62
2022/05/13 01:05:18;;;;;;;12.70;8.20;;;;;;;14.77;100.00;97657.88;5009101;28;20042;-61
2022/05/13 01:07:45;;;;;;;11.90;8.95;;;;;;;14.81;100.00;97649.97;5007719;28;20046;-61
2022/05/13 01:10:18;;;;;;;9.48;6.25;;;;;;;14.82;100.00;97646.19;5008486;28;20046;-61
2022/05/13 01:12:50;;;;;;;10.88;6.80;;;;;;;14.77;100.00;97636.09;5007095;28;20057;-61
2022/05/13 01:15:25;;;;;;;10.32;6.80;;;;;;;14.80;100.00;97642.91;5013486;28;20041;-62
2022/05/13 01:18:06;;;;;;;9.52;6.05;;;;;;;14.81;100.00;97628.16;4998941;28;20073;-61
2022/05/13 01:20:46;;;;;;;9.75;6.45;;;;;;;14.76;100.00;97634.47;4994027;28;20053;-62
2022/05/13 01:23:17;;;;;;;9.25;6.82;;;;;;;14.72;100.00;97635.22;5020131;28;20128;-63
2022/05/13 01:25:47;;;;;;;13.57;6.70;;;;;;;14.72;100.00;97638.78;5010560;28;20543;-63
2022/05/13 01:28:17;;;;;;;8.45;5.93;;;;;;;14.64;100.00;97629.25;5005217;28;20460;-63
2022/05/13 01:30:47;;;;;;;8.80;6.65;;;;;;;14.61;100.00;97637.13;5000137;28;20045;-63
2022/05/13 01:33:15;;;;;;;10.75;6.63;;;;;;;14.68;100.00;97638.50;4987511;28;20042;-63
2022/05/13 01:35:44;;;;;;;10.48;5.28;;;;;;;14.80;100.00;97646.44;4988808;28;20053;-61
2022/05/13 01:38:13;;;;;;;10.27;6.13;;;;;;;14.65;100.00;97646.41;5006953;28;20099;-62
2022/05/13 01:40:40;;;;;;;9.07;6.45;;;;;;;14.66;100.00;97646.13;4994031;28;20756;-61
2022/05/13 01:43:08;;;;;;;10.73;6.38;;;;;;;14.65;100.00;97639.06;5007586;28;20691;-64
2022/05/13 01:45:35;;;;;;;10.52;6.63;;;;;;;14.61;100.00;97640.69;4996909;28;20048;-64
2022/05/13 01:48:04;;;;;;;10.63;5.75;;;;;;;14.60;100.00;97644.50;5004079;28;20088;-63
2022/05/13 01:50:30;;;;;;;12.20;6.32;;;;;;;14.59;100.00;97642.84;5007198;28;20048;-62
2022/05/13 01:52:56;;;;;;;8.32;6.28;;;;;;;14.64;100.00;97628.44;4988179;28;20073;-63
2022/05/13 01:55:23;;;;;;;7.05;5.50;;;;;;;14.64;100.00;97628.44;4987808;28;20050;-64
2022/05/13 01:57:50;;;;;;;10.13;5.82;;;;;;;14.68;100.00;97634.97;5005377;28;20045;-62
2022/05/13 02:00:17;;;;;;;9.10;4.80;;;;;;;14.74;100.00;97642.03;5004947;28;20041;-64
2022/05/13 02:05:30;;;;;;;9.57;5.75;;;;;;;14.50;100.00;97669.00;5007334;28;20073;-62
2022/05/13 02:07:57;;;;;;;11.60;5.97;;;;;;;14.51;100.00;97667.91;5003783;28;20049;-63
2022/05/13 02:10:24;;;;;;;9.75;6.07;;;;;;;14.45;100.00;97664.38;5007131;28;20052;-62
2022/05/13 02:12:50;;;;;;;12.43;5.88;;;;;;;14.48;100.00;97644.75;4987400;28;20104;-61
2022/05/13 02:15:17;;;;;;;13.70;6.72;;;;;;;14.41;100.00;97642.28;4987665;28;20125;-63
2022/05/13 02:17:44;;;;;;;12.35;6.75;;;;;;;14.33;100.00;97651.00;5001536;28;20038;-63
2022/05/13 02:20:11;;;;;;;9.77;6.13;;;;;;;14.38;100.00;97661.91;5014290;28;20053;-62
2022/05/13 02:22:38;;;;;;;9.32;6.07;;;;;;;14.42;100.00;97649.38;5010748;28;20059;-61
2022/05/13 02:25:06;;;;;;;11.27;6.20;;;;;;;14.46;100.00;97646.13;5018245;28;20048;-61
2022/05/13 02:27:33;;;;;;;7.40;4.85;;;;;;;14.50;100.00;97658.94;5005489;28;20081;-61
2022/05/13 02:29:59;;;;;;;9.30;5.22;;;;;;;14.59;100.00;97652.97;4988840;28;20128;-62
2022/05/13 02:32:26;;;;;;;10.25;4.90;;;;;;;14.66;100.00;97653.47;4990087;28;20060;-62
2022/05/13 02:34:52;;;;;;;10.70;5.55;;;;;;;14.70;100.00;97649.13;4987451;28;20046;-61
2022/05/13 02:37:19;;;;;;;7.88;4.90;;;;;;;14.68;100.00;97643.94;4999544;28;20053;-60
2022/05/13 02:39:45;;;;;;;12.60;5.93;;;;;;;14.55;100.00;97639.03;5004149;28;20076;-61
2022/05/13 02:42:12;;;;;;;10.57;5.70;;;;;;;14.51;100.00;97637.94;5004657;28;20053;-61
2022/05/13 02:44:39;;;;;;;11.88;6.65;;;;;;;14.43;100.00;97642.03;5001628;28;20054;-61
2022/05/13 02:47:05;;;;;;;10.93;6.85;;;;;;;14.36;100.00;97645.03;4999147;28;20057;-61
2022/05/13 02:49:32;;;;;;;15.55;7.28;;;;;;;14.27;100.00;97646.66;4990027;28;20042;-62
2022/05/13 02:51:59;;;;;;;11.38;7.43;;;;;;;14.30;100.00;97646.13;4997115;28;20057;-64
2022/05/13 02:54:25;;;;;;;10.45;7.03;;;;;;;14.27;100.00;97652.09;5005339;28;20113;-61
2022/05/13 02:56:52;;;;;;;10.13;6.93;;;;;;;14.28;100.00;97642.81;5002812;28;20041;-61
2022/05/13 02:59:18;;;;;;;11.13;7.80;;;;;;;14.31;100.00;97651.25;5005181;28;20045;-63
2022/05/13 03:01:45;;;;;;;11.57;7.80;;;;;;;14.23;100.00;97651.78;5000048;28;20049;-63
2022/05/13 03:04:12;;;;;;;11.80;7.97;;;;;;;14.28;100.00;97653.72;4999297;28;20046;-62
2022/05/13 03:06:38;;;;;;;14.50;8.32;;;;;;;14.30;100.00;97657.81;5005818;28;20045;-62
2022/05/13 03:09:05;;;;;;;13.55;8.18;;;;;;;14.22;100.00;97661.06;5004411;28;20046;-63
2022/05/13 03:11:31;;;;;;;11.70;7.90;;;;;;;14.20;100.00;97655.06;4999389;28;20673;-61
2022/05/13 03:13:58;;;;;;;13.30;8.68;;;;;;;14.16;100.00;97648.53;4986656;28;20054;-62
2022/05/13 03:16:25;;;;;;;13.73;8.18;;;;;;;14.14;100.00;97640.63;4996674;28;20525;-63
2022/05/13 03:18:55;;;;;;;11.38;7.82;;;;;;;14.17;100.00;97642.00;5004784;28;20038;-64
2022/05/13 03:21:23;;;;;;;11.65;8.07;;;;;;;14.23;100.00;97640.09;4999833;28;20038;-62
2022/05/13 03:23:50;;;;;;;14.18;7.70;;;;;;;14.22;100.00;97639.28;5019542;28;20104;-62
2022/05/13 03:26:18;;;;;;;11.05;7.05;;;;;;;14.25;100.00;97644.19;5014829;28;20069;-62
2022/05/13 03:28:45;;;;;;;12.77;6.90;;;;;;;14.25;100.00;97641.47;4998880;28;20045;-61
2022/05/13 03:31:12;;;;;;;10.80;6.90;;;;;;;14.17;100.00;97634.66;5003543;28;20053;-62
2022/05/13 03:33:39;;;;;;;10.70;7.00;;;;;;;14.16;100.00;97638.44;5006105;28;20044;-62
2022/05/13 03:36:06;;;;;;;12.93;7.93;;;;;;;14.18;100.00;97636.28;5004657;28;20057;-63
2022/05/13 03:38:33;;;;;;;10.15;7.53;;;;;;;14.07;100.00;97647.41;4999647;28;20045;-61
2022/05/13 03:40:59;;;;;;;11.52;6.53;;;;;;;14.04;100.00;97651.47;4986963;28;20041;-62
2022/05/13 03:43:26;;;;;;;9.05;6.93;;;;;;;13.94;100.00;97649.56;4998050;28;20591;-62
2022/05/13 03:45:52;;;;;;;13.02;7.88;;;;;;;13.93;100.00;97644.38;4991615;28;20045;-61
2022/05/13 03:48:19;;;;;;;13.27;6.82;;;;;;;14.03;100.00;97653.38;5004789;28;20045;-60
2022/05/13 03:50:46;;;;;;;9.13;5.82;;;;;;;14.13;100.00;97654.50;5005897;28;20051;-61
2022/05/13 03:53:13;;;;;;;7.75;5.40;;;;;;;14.21;100.00;97653.16;5024633;28;20516;-62
2022/05/13 03:55:41;;;;;;;8.50;5.53;;;;;;;14.21;100.00;97645.81;5012715;28;20421;-62
2022/05/13 03:58:07;;;;;;;9.50;6.22;;;;;;;14.20;100.00;97648.81;5004807;28;20108;-62
2022/05/13 04:00:35;;;;;;;10.25;6.05;;;;;;;14.09;100.00;97650.69;5003729;28;20560;-62
2022/05/13 04:03:03;;;;;;;12.10;7.82;;;;;;;13.99;100.00;97646.00;5009762;28;20049;-61
2022/05/13 04:11:01;;;;;;;11.35;8.00;;;;;;;13.93;100.00;97638.94;5008134;28;20050;-62
2022/05/13 04:16:12;;;;;;;14.68;8.80;;;;;;;13.87;100.00;97646.25;5014426;28;20497;-64
2022/05/13 04:18:42;;;;;;;14.32;8.60;;;;;;;13.84;100.00;97641.34;5007915;28;20045;-63
2022/05/13 04:21:13;;;;;;;11.40;9.23;;;;;;;13.79;100.00;97642.16;5002071;28;20064;-63
2022/05/13 04:23:42;;;;;;;13.10;9.57;;;;;;;13.76;100.00;97646.22;5011519;28;20053;-64
2022/05/13 04:26:12;;;;;;;14.95;9.48;;;;;;;13.81;100.00;97648.13;5006293;28;20296;-63
2022/05/13 04:28:39;;;;;;;15.68;10.40;;;;;;;13.77;100.00;97644.31;5005459;28;20063;-63
2022/05/13 04:31:06;;;;;;;12.65;9.57;;;;;;;13.78;100.00;97645.94;5006614;28;20172;-62
2022/05/13 04:33:35;;;;;;;15.23;10.15;;;;;;;13.78;100.00;97654.09;5006798;28;20661;-61
2022/05/13 04:36:02;;;;;;;17.27;10.50;;;;;;;13.84;100.00;97660.38;5001546;28;20049;-63
2022/05/13 04:38:29;;;;;;;16.70;11.35;;;;;;;14.00;100.00;97674.88;5000768;28;20088;-62
2022/05/13 04:40:55;;;;;;;16.73;10.52;;;;;;;14.04;100.00;97675.97;5006206;28;20062;-63
2022/05/13 04:43:22;;;;;;;14.02;10.63;;;;;;;14.11;100.00;97682.00;5011225;28;20046;-63
2022/05/13 04:45:49;;;;;;;14.80;9.63;;;;;;;14.11;100.00;97682.00;5002457;28;20057;-63
2022/05/13 04:48:16;;;;;;;13.38;8.13;;;;;;;14.20;100.00;97682.31;5015143;28;20072;-62
2022/05/13 04:51:01;;;;;;;12.57;8.52;;;;;;;14.22;100.00;97687.50;5010485;28;20050;-61
2022/05/13 04:53:31;;;;;;;9.75;7.00;;;;;;;14.37;100.00;97684.78;4995248;28;20045;-62
2022/05/13 04:55:59;;;;;;;13.35;7.63;;;;;;;14.50;100.00;97688.09;5010114;28;20053;-62
2022/05/13 04:58:27;;;;;;;9.10;6.45;;;;;;;14.49;99.97;97691.91;5006688;28;20046;-62
2022/05/13 05:00:55;;;;;;;10.40;5.90;;;;;;;14.63;99.05;97697.66;5006995;28;20402;-61
2022/05/13 05:03:24;;;;;;;11.90;6.25;;;;;;;14.70;99.05;97701.75;4998492;28;20133;-62
2022/05/13 05:05:59;;;;;;;8.85;6.47;;;;;;;14.77;100.00;97689.78;5007057;28;20037;-62
2022/05/13 05:08:27;;;;;;;11.30;7.13;;;;;;;14.78;100.00;97691.44;5006399;28;20038;-63
2022/05/13 05:10:54;;;;;;;9.57;6.90;;;;;;;14.77;99.79;97689.78;5007465;28;20046;-63
2022/05/13 05:13:27;;;;;;;10.48;6.65;;;;;;;14.77;100.00;97698.78;4989197;28;20046;-61
2022/05/13 05:15:54;;;;;;;11.98;6.65;;;;;;;14.75;99.73;97694.66;4996245;28;20050;-63
2022/05/13 05:18:21;;;;;;;11.63;6.57;;;;;;;14.81;99.29;97688.13;5006856;28;20088;-63
2022/05/13 05:20:48;;;;;;;13.23;6.57;;;;;;;14.97;99.69;97688.97;5010245;28;20045;-64
2022/05/13 05:23:35;;;;;;;8.65;6.53;;;;;;;15.03;97.68;97687.88;5016545;28;20076;-64
2022/05/13 05:26:02;;;;;;;12.60;6.63;;;;;;;15.07;98.48;97690.88;5020646;28;20545;-63
2022/05/13 05:28:29;;;;;;;8.60;5.75;;;;;;;15.09;98.20;97691.41;4991142;28;20059;-62
2022/05/13 05:31:00;;;;;;;10.80;5.80;;;;;;;15.02;96.20;97696.31;5017796;28;20065;-63
2022/05/13 05:33:27;;;;;;;9.93;5.28;;;;;;;15.01;96.76;97697.41;4997843;28;20056;-61
2022/05/13 05:35:54;;;;;;;9.70;5.38;;;;;;;15.05;96.84;97703.97;5007490;28;20397;-62
2022/05/13 05:38:21;;;;;;;13.93;5.05;;;;;;;15.02;95.21;97699.88;5011638;28;20050;-62
2022/05/13 05:40:47;;;;;;;9.90;5.70;;;;;;;14.93;97.64;97705.03;5005042;28;20050;-63
2022/05/13 05:43:16;;;;;;;9.35;5.07;;;;;;;14.92;98.00;97711.59;5014994;28;20049;-62
2022/05/13 05:45:44;;;;;;;8.23;5.78;;;;;;;14.90;97.02;97713.78;5008709;28;20088;-62
2022/05/13 05:48:13;;;;;;;9.85;4.90;;;;;;;15.00;96.34;97707.50;5006120;28;20046;-61
2022/05/13 05:50:40;;;;;;;8.73;3.90;;;;;;;14.91;93.19;97715.41;5004147;28;20057;-62
2022/05/13 05:53:06;;;;;;;8.23;3.53;;;;;;;14.83;91.37;97710.50;5011776;28;20194;-61
2022/05/13 05:58:19;;;;;;;10.45;4.85;;;;;;;15.24;90.91;97711.59;5009904;28;20717;-61
2022/05/13 06:00:50;;;;;;;7.72;3.53;;;;;;;15.51;90.63;97715.94;4996460;28;20062;-63
2022/05/13 06:03:18;;;;;;;8.63;3.17;;;;;;;15.42;88.60;97718.38;5007288;28;20540;-61
2022/05/13 06:05:59;;;;;;;11.00;3.35;;;;;;;15.34;88.04;97719.78;5006155;28;20050;-62
2022/05/13 06:08:26;;;;;;;6.75;3.17;;;;;;;15.56;87.01;97724.91;5001638;28;20041;-61
2022/05/13 06:10:52;;;;;;;5.40;3.00;;;;;;;15.54;86.03;97724.38;4997903;28;20042;-63
2022/05/13 06:13:19;;;;;;;8.82;3.60;;;;;;;15.64;87.97;97723.53;4995996;28;20112;-61
2022/05/13 06:15:46;;;;;;;8.48;3.90;;;;;;;15.65;89.69;97727.06;4998559;28;20058;-61
2022/05/13 06:18:12;;;;;;;12.32;3.75;;;;;;;15.82;89.29;97724.03;5003457;28;20050;-60
2022/05/13 06:20:40;;;;;;;7.60;3.42;;;;;;;16.04;87.53;97729.19;4998077;28;20096;-62
2022/05/13 06:23:07;;;;;;;8.25;3.15;;;;;;;16.33;86.26;97724.97;5007994;28;20052;-63
2022/05/13 06:25:34;;;;;;;10.45;3.63;;;;;;;16.42;81.75;97719.69;5004269;28;20038;-60
2022/05/13 06:28:01;;;;;;;7.95;2.80;;;;;;;16.81;81.78;97718.91;4999835;28;20043;-62
2022/05/13 06:30:31;;;;;;;6.82;2.92;;;;;;;16.98;82.20;97717.69;4994979;28;20038;-61
2022/05/13 06:32:58;;;;;;;6.07;2.72;;;;;;;17.02;78.69;97724.22;5005614;28;20283;-62
2022/05/13 06:35:27;;;;;;;6.05;2.72;;;;;;;17.10;78.29;97720.13;5008267;28;20707;-60
2022/05/13 06:37:54;;;;;;;5.82;2.22;;;;;;;17.03;76.61;97729.41;5007953;28;20508;-62
2022/05/13 06:40:22;;;;;;;6.78;2.50;;;;;;;16.94;76.13;97733.88;5016131;28;20048;-62
2022/05/13 06:42:50;;;;;;;6.18;2.70;;;;;;;16.96;79.72;97736.31;5009840;28;20054;-61
2022/05/13 06:45:17;;;;;;;7.10;3.60;;;;;;;16.94;79.14;97735.78;5006464;28;20054;-61
2022/05/13 06:47:44;;;;;;;7.22;2.55;;;;;;;16.84;79.50;97742.94;5013733;28;20038;-61
2022/05/13 06:50:16;;;;;;;7.80;2.70;;;;;;;16.50;75.37;97747.28;5004812;28;20048;-60
2022/05/13 06:52:43;;;;;;;4.45;2.40;;;;;;;16.49;78.08;97736.63;5001004;28;20045;-62
2022/05/13 06:55:13;;;;;;;10.77;3.10;;;;;;;16.42;80.55;97747.03;5017807;28;20042;-63
2022/05/13 06:57:39;;;;;;;4.95;2.70;;;;;;;16.28;79.78;97755.03;5004955;28;20057;-63
2022/05/13 07:00:09;;;;;;;5.93;2.28;;;;;;;16.36;78.38;97754.44;5020232;28;20055;-63
2022/05/13 07:02:36;;;;;;;8.40;2.45;;;;;;;16.30;77.82;97758.31;5004958;28;20698;-63
2022/05/13 07:05:03;;;;;;;6.78;2.25;;;;;;;16.59;73.64;97758.41;5014942;28;20037;-63
2022/05/13 07:07:30;;;;;;;11.00;2.75;;;;;;;16.62;72.21;97762.53;5006091;28;20567;-63
2022/05/13 07:09:57;;;;;;;6.40;2.30;;;;;;;16.95;72.93;97771.06;5005610;28;20046;-61
2022/05/13 07:12:24;;;;;;;9.15;2.55;;;;;;;16.66;74.58;97765.50;5004273;28;20049;-61
2022/05/13 07:14:50;;;;;;;5.53;2.10;;;;;;;16.56;69.93;97771.84;4991789;28;20362;-61
2022/05/13 07:17:17;;;;;;;7.47;2.35;;;;;;;16.63;72.24;97775.09;5007937;28;20532;-61
2022/05/13 07:19:43;;;;;;;6.97;2.47;;;;;;;16.72;70.81;97769.81;5014660;28;20405;-61
2022/05/13 07:22:10;;;;;;;7.43;2.20;;;;;;;16.90;69.40;97782.84;4989396;28;20108;-62
2022/05/13 07:24:37;;;;;;;4.32;1.70;;;;;;;16.93;66.97;97780.63;5008920;28;20080;-62
2022/05/13 07:27:04;;;;;;;6.50;1.92;;;;;;;16.75;68.80;97785.69;5021092;28;20050;-61
2022/05/13 07:29:31;;;;;;;4.75;1.80;;;;;;;16.82;70.02;97782.63;5001252;28;20498;-62
2022/05/13 07:31:58;;;;;;;11.68;3.17;;;;;;;16.74;67.65;97781.31;4991262;28;20042;-61
2022/05/13 07:34:24;;;;;;;5.22;1.98;;;;;;;16.77;69.69;97794.44;4988938;28;20441;-62
2022/05/13 07:36:54;;;;;;;7.30;2.50;;;;;;;17.19;67.85;97783.22;5004754;28;20053;-60
2022/05/13 07:42:08;;;;;;;9.88;2.55;;;;;;;16.94;67.97;97799.50;5004463;28;20053;-63
2022/05/13 07:44:35;;;;;;;7.53;2.13;;;;;;;17.36;67.97;97799.25;4985813;28;20213;-62
2022/05/13 07:47:04;;;;;;;9.10;2.90;;;;;;;17.15;69.75;97804.88;5005130;28;20041;-61
2022/05/13 07:49:31;;;;;;;6.97;2.95;;;;;;;17.07;67.65;97811.78;4998140;28;20042;-62
2022/05/13 07:51:57;;;;;;;8.77;2.50;;;;;;;17.15;66.28;97805.69;4997680;28;20708;-60
2022/05/13 07:54:24;;;;;;;8.27;2.20;;;;;;;17.33;63.60;97806.13;4991435;28;20100;-62
2022/05/13 07:56:50;;;;;;;9.23;2.40;;;;;;;17.59;63.80;97810.56;5008323;28;20050;-61
2022/05/13 07:59:17;;;;;;;9.73;2.65;;;;;;;16.89;67.53;97819.50;5003427;28;20034;-61
2022/05/13 08:01:44;;;;;;;8.50;2.97;;;;;;;17.44;68.45;97812.31;5010753;28;20464;-61
2022/05/13 08:04:11;;;;;;;8.90;2.17;;;;;;;17.66;64.97;97814.59;4999423;28;20050;-61
2022/05/13 08:06:39;;;;;;;4.70;2.03;;;;;;;17.89;66.11;97814.94;4983882;28;20049;-60
2022/05/13 08:09:07;;;;;;;7.70;2.60;;;;;;;18.00;64.71;97818.38;5009403;28;20037;-61
2022/05/13 08:11:33;;;;;;;10.35;2.78;;;;;;;17.11;63.43;97812.84;5010503;28;20052;-62
2022/05/13 08:14:06;;;;;;;5.30;1.90;;;;;;;17.68;65.34;97822.50;5007106;28;20046;-61
2022/05/13 08:16:34;;;;;;;6.95;2.15;;;;;;;17.30;64.43;97814.91;5012359;28;20045;-63
2022/05/13 08:19:02;;;;;;;4.47;2.58;;;;;;;17.25;65.57;97820.41;4989948;28;20038;-63
2022/05/13 08:21:30;;;;;;;6.90;2.20;;;;;;;17.66;62.10;97805.56;5011848;28;20057;-63
2022/05/13 08:23:57;;;;;;;7.75;2.35;;;;;;;17.91;62.25;97809.97;5012795;28;20123;-63
2022/05/13 08:26:23;;;;;;;7.35;2.40;;;;;;;17.76;64.99;97808.19;5019985;28;20083;-63
2022/05/13 08:28:50;;;;;;;7.93;2.20;;;;;;;17.88;63.50;97816.00;5010145;28;20045;-63
2022/05/13 08:31:17;;;;;;;11.20;2.28;;;;;;;17.74;63.73;97818.63;5011085;28;20041;-63
2022/05/13 08:33:43;;;;;;;6.95;2.58;;;;;;;17.88;64.22;97821.50;5001458;28;20041;-63
2022/05/13 08:36:14;;;;;;;6.50;2.17;;;;;;;18.09;63.77;97815.03;5018596;28;20420;-63
2022/05/13 08:38:43;;;;;;;8.45;2.40;;;;;;;17.64;64.46;97810.50;5007704;28;20050;-63
2022/05/13 08:41:10;;;;;;;10.60;2.53;;;;;;;18.03;62.93;97812.31;5022146;28;20524;-63
2022/05/13 08:43:41;;;;;;;8.20;2.60;;;;;;;17.96;61.46;97813.75;5006291;28;20056;-63
2022/05/13 08:46:11;;;;;;;6.75;1.90;;;;;;;17.93;61.01;97824.22;5016048;28;20104;-63
2022/05/13 08:48:48;;;;;;;8.55;2.28;;;;;;;18.28;63.35;97813.16;5009702;28;20048;-63
2022/05/13 08:51:21;;;;;;;5.85;2.10;;;;;;;18.62;61.96;97827.03;5006749;28;20053;-63
2022/05/13 08:54:06;;;;;;;9.30;2.72;;;;;;;18.18;61.60;97822.31;5019662;28;20046;-63
2022/05/13 08:56:34;;;;;;;5.55;2.58;;;;;;;18.11;61.02;97815.56;5014368;28;20061;-63
2022/05/13 08:59:12;;;;;;;6.25;2.42;;;;;;;18.51;59.95;97810.72;5008659;28;20054;-63
2022/05/13 09:01:46;;;;;;;4.85;2.10;;;;;;;18.65;60.02;97815.47;5002851;28;20149;-63
2022/05/13 09:04:25;;;;;;;4.28;1.90;;;;;;;18.98;58.03;97812.81;5007168;28;20085;-63
2022/05/13 09:06:59;;;;;;;8.65;2.15;;;;;;;18.94;59.43;97818.09;5021960;28;20052;-63
2022/05/13 09:09:26;;;;;;;6.47;1.88;;;;;;;17.92;57.68;97824.50;5011551;28;20559;-62
2022/05/13 09:12:02;;;;;;;7.20;2.00;;;;;;;17.90;60.14;97819.31;5006439;28;20084;-62
2022/05/13 09:14:40;;;;;;;;;;;;;;;17.73;59.42;97821.66;5003864;28;20046;-63
2022/05/13 09:17:33;;;;;;;9.93;2.40;;;;;;;17.67;59.73;97824.44;5014401;28;20418;-63
2022/05/13 09:20:06;;;;;;;8.63;1.98;;;;;;;17.79;59.48;97817.75;5000451;28;20061;-63
2022/05/13 09:22:45;;;;;;;6.55;2.00;;;;;;;17.45;58.49;97822.16;5022811;28;20125;-63
2022/05/13 09:25:26;;;;;;;6.95;2.30;;;;;;;17.62;57.53;97818.19;5002016;28;20050;-64
2022/05/13 09:28:00;;;;;;;8.77;2.80;;;;;;;17.63;58.68;97820.66;5000642;28;20048;-63
2022/05/13 09:30:42;;;;;;;5.90;2.35;;;;;;;17.62;57.77;97824.47;5008901;28;21394;-63
2022/05/13 09:33:30;;;;;;;7.05;2.08;;;;;;;18.33;58.10;97820.53;5021456;28;20049;-63
2022/05/13 09:36:08;;;;;;;4.97;1.85;;;;;;;19.27;56.37;97820.09;4996922;28;20068;-63
2022/05/13 09:38:46;;;;;;;6.18;1.40;;;;;;;19.07;52.96;97819.31;5016502;28;20037;-65
2022/05/13 09:41:23;;;;;;;4.88;1.65;;;;;;;19.83;51.88;97824.97;5011082;28;20404;-63
2022/05/13 09:43:56;;;;;;;6.05;1.90;;;;;;;20.11;52.97;97825.03;4996503;28;20401;-61
2022/05/13 09:46:42;;;;;;;4.68;1.60;;;;;;;19.53;52.63;97819.69;5000192;28;20552;-63
2022/05/13 09:49:18;;;;;;;7.78;2.33;;;;;;;19.36;54.05;97823.78;5008508;28;20046;-65
2022/05/13 09:51:58;;;;;;;4.20;1.67;;;;;;;19.48;53.43;97819.78;5015506;28;20061;-63
2022/05/13 09:54:26;;;;;;;9.13;2.58;;;;;;;18.85;57.57;97820.69;5001348;28;20480;-63
2022/05/13 09:57:22;;;;;;;5.65;2.38;;;;;;;19.93;55.00;97821.25;5003739;28;20052;-63
2022/05/13 10:00:00;;;;;;;8.10;2.80;;;;;;;18.93;56.18;97816.47;4998599;28;20102;-63
2022/05/13 10:02:40;;;;;;;6.78;2.17;;;;;;;18.51;59.37;97812.63;5012614;28;20085;-63
2022/05/13 10:05:26;;;;;;;6.28;2.00;;;;;;;18.83;58.08;97827.56;5018614;28;20045;-63
2022/05/13 10:07:52;;;;;;;9.70;2.22;;;;;;;18.89;56.98;97814.59;5018495;28;20338;-63
2022/05/13 10:16:07;;;;;;;4.80;2.30;;;;;;;19.43;54.17;97822.63;4999115;28;20042;-63
2022/05/13 10:18:47;;;;;;;5.68;2.15;;;;;;;19.26;54.34;97817.66;5003691;28;20041;-63
2022/05/13 10:21:29;;;;;;;6.82;2.75;;;;;;;18.20;57.23;97819.28;5002117;28;20046;-63
2022/05/13 10:24:04;;;;;;;7.75;2.53;;;;;;;17.88;57.50;97826.97;5013944;28;20388;-63
2022/05/13 10:26:41;;;;;;;7.38;2.53;;;;;;;17.98;59.52;97820.59;5016013;28;20060;-63
2022/05/13 10:29:16;;;;;;;8.10;2.22;;;;;;;18.23;58.07;97828.84;4991949;28;20050;-62
2022/05/13 10:31:46;;;;;;;15.70;2.70;;;;;;;18.55;57.38;97820.00;5019248;28;20045;-63
2022/05/13 10:34:36;;;;;;;9.15;3.15;;;;;;;19.12;56.22;97828.59;5006061;28;20046;-62
2022/05/13 10:37:10;;;;;;;6.60;2.60;;;;;;;18.70;56.24;97831.84;5021224;28;20049;-63
2022/05/13 10:39:44;;;;;;;9.85;3.10;;;;;;;18.75;56.42;97831.78;5012085;28;20034;-62
2022/05/13 10:42:24;;;;;;;6.47;2.40;;;;;;;19.28;55.28;97827.25;5010659;28;20045;-63
2022/05/13 10:45:19;;;;;;;5.77;2.10;;;;;;;19.75;53.27;97829.22;5020635;28;20523;-63
2022/05/13 10:47:58;;;;;;;8.00;2.78;;;;;;;19.71;55.27;97826.25;5000293;28;20065;-63
2022/05/13 10:50:35;;;;;;;5.75;2.40;;;;;;;19.68;54.79;97826.06;5000449;28;20046;-63
2022/05/13 10:53:17;;;;;;;10.30;3.75;;;;;;;19.74;55.32;97824.84;5004617;28;20053;-63
2022/05/13 10:55:57;;;;;;;5.70;3.05;;;;;;;19.28;55.71;97824.50;4990837;28;20548;-63
2022/05/13 10:58:42;;;;;;;9.13;4.43;;;;;;;19.34;55.75;97820.53;4996868;28;20044;-61
2022/05/13 11:01:44;;;;;;;6.05;2.58;;;;;;;19.74;54.95;97824.84;5010240;28;20041;-62
2022/05/13 11:04:33;;;;;;;6.88;2.20;;;;;;;19.63;53.99;97813.22;4999488;28;20034;-62
2022/05/13 11:07:22;;;;;;;7.13;2.83;;;;;;;19.73;53.30;97815.81;4993573;28;20156;-62
2022/05/13 11:10:26;;;;;;;7.15;1.80;;;;;;;19.65;51.65;97811.00;4997806;28;20513;-61
2022/05/13 11:13:05;;;;;;;7.75;2.40;;;;;;;18.91;53.97;97817.88;4999480;28;20057;-61
2022/05/13 11:15:54;;;;;;;6.38;1.90;;;;;;;19.10;53.89;97802.22;5001627;28;20038;-61
2022/05/13 11:19:05;;;;;;;8.65;2.78;;;;;;;18.76;54.52;97811.47;4987601;28;20070;-62
2022/05/13 11:22:05;;;;;;;5.63;1.80;;;;;;;19.22;53.02;97803.72;4966338;28;20042;-62
2022/05/13 11:28:38;;;;;;;7.25;2.10;;;;;;;20.30;51.95;97807.66;5007705;28;20052;-62
2022/05/13 11:31:37;;;;;;;9.75;2.80;;;;;;;19.78;53.42;97811.34;4937635;28;20047;-62
2022/05/13 11:34:12;;;;;;;8.10;2.70;;;;;;;19.79;53.24;97813.75;4931586;28;20789;-62
2022/05/13 11:37:02;;;;;;;4.25;1.92;;;;;;;19.53;52.89;97813.41;5007877;28;20064;-61
2022/05/13 11:39:54;;;;;;;6.40;2.28;;;;;;;20.40;50.94;97812.94;5013170;28;20045;-62
2022/05/13 11:42:37;;;;;;;4.40;1.90;;;;;;;20.40;50.44;97808.25;4991984;28;20566;-61
2022/05/13 11:45:49;;;;;;;7.72;2.40;;;;;;;20.15;52.32;97801.31;5003613;28;20049;-61
2022/05/13 11:48:20;;;;;;;;;;;;;;;19.62;54.06;97809.69;5024197;28;20512;-63
2022/05/13 11:50:47;;;;;;;7.77;2.10;;;;;;;19.84;53.50;97808.19;5002209;28;20562;-61
2022/05/13 11:53:54;;;;;;;7.60;2.25;;;;;;;19.52;54.71;97804.34;5019094;28;20049;-61
2022/05/13 11:56:29;;;;;;;6.68;2.47;;;;;;;19.87;51.91;97810.31;4998210;28;20061;-62
2022/05/13 11:59:16;;;;;;;6.85;2.20;;;;;;;20.19;50.88;97796.84;5007475;28;20535;-61
2022/05/13 12:01:45;;;;;;;6.43;2.58;;;;;;;20.44;51.18;97799.38;5010986;28;20138;-62
2022/05/13 12:04:12;;;;;;;7.35;2.33;;;;;;;20.39;51.74;97809.34;5014313;28;20046;-62
2022/05/13 12:06:50;;;;;;;4.90;2.13;;;;;;;20.94;50.28;97804.13;5015709;28;20638;-62
2022/05/13 12:09:23;;;;;;;5.22;1.83;;;;;;;21.10;50.72;97793.56;5003080;28;20069;-62
2022/05/13 12:12:14;;;;;;;5.05;2.13;;;;;;;20.36;50.76;97792.66;5005460;28;20507;-62